sensor_id;sensor_type;location;lat;lon;timestamp;P1;durP1;ratioP1;P2;durP2;ratioP2
56297;SDS011;42208;6.376;-10.782;2022-08-21T00:01:54;5.03;;;3.15;;
56297;SDS011;42208;6.376;-10.782;2022-08-21T00:04:22;7.75;;;3.30;;
56297;SDS011;42208;6.376;-10.782;2022-08-21T00:06:56;4.85;;;3.20;;
56297;SDS011;42208;6.376;-10.782;2022-08-21T00:09:25;5.90;;;3.60;;
56297;SDS011;42208;6.376;-10.782;2022-08-21T00:11:53;9.38;;;3.58;;
56297;SDS011;42208;6.376;-10.782;2022-08-21T00:14:22;9.93;;;3.92;;
56297;SDS011;42208;6.376;-10.782;2022-08-21T00:16:51;7.13;;;3.45;;
56297;SDS011;42208;6.376;-10.782;2022-08-21T00:19:23;11.77;;;4.10;;
56297;SDS011;42208;6.376;-10.782;2022-08-21T00:21:52;10.82;;;3.50;;
56297;SDS011;42208;6.376;-10.782;2022-08-21T00:24:22;13.05;;;3.50;;
56297;SDS011;42208;6.376;-10.782;2022-08-21T00:26:52;13.73;;;4.10;;
56297;SDS011;42208;6.376;-10.782;2022-08-21T00:29:20;8.25;;;3.80;;
56297;SDS011;42208;6.376;-10.782;2022-08-21T00:31:48;8.70;;;3.35;;
56297;SDS011;42208;6.376;-10.782;2022-08-21T00:34:17;7.25;;;3.42;;
56297;SDS011;42208;6.376;-10.782;2022-08-21T00:36:45;7.97;;;3.50;;
56297;SDS011;42208;6.376;-10.782;2022-08-21T00:39:14;9.63;;;3.47;;
56297;SDS011;42208;6.376;-10.782;2022-08-21T00:41:42;9.05;;;3.65;;
56297;SDS011;42208;6.376;-10.782;2022-08-21T00:44:12;5.68;;;3.22;;
56297;SDS011;42208;6.376;-10.782;2022-08-21T00:46:41;9.00;;;3.08;;
56297;SDS011;42208;6.376;-10.782;2022-08-21T00:49:10;6.43;;;3.10;;
56297;SDS011;42208;6.376;-10.782;2022-08-21T00:51:58;9.90;;;4.22;;
56297;SDS011;42208;6.376;-10.782;2022-08-21T00:54:29;7.15;;;2.97;;
56297;SDS011;42208;6.376;-10.782;2022-08-21T00:57:01;10.65;;;4.90;;
56297;SDS011;42208;6.376;-10.782;2022-08-21T00:59:35;7.70;;;3.72;;
56297;SDS011;42208;6.376;-10.782;2022-08-21T01:02:06;8.60;;;4.67;;
56297;SDS011;42208;6.376;-10.782;2022-08-21T01:04:36;12.60;;;4.10;;
56297;SDS011;42208;6.376;-10.782;2022-08-21T01:07:04;8.80;;;4.30;;
56297;SDS011;42208;6.376;-10.782;2022-08-21T01:09:33;11.35;;;4.18;;
56297;SDS011;42208;6.376;-10.782;2022-08-21T01:12:02;8.68;;;4.45;;
56297;SDS011;42208;6.376;-10.782;2022-08-21T01:14:30;8.25;;;4.20;;
56297;SDS011;42208;6.376;-10.782;2022-08-21T01:16:59;8.13;;;4.15;;
56297;SDS011;42208;6.376;-10.782;2022-08-21T01:19:29;10.00;;;4.03;;
56297;SDS011;42208;6.376;-10.782;2022-08-21T01:21:58;5.35;;;3.70;;
56297;SDS011;42208;6.376;-10.782;2022-08-21T01:24:26;10.95;;;4.18;;
56297;SDS011;42208;6.376;-10.782;2022-08-21T01:26:54;9.45;;;4.65;;
56297;SDS011;42208;6.376;-10.782;2022-08-21T01:32:12;6.45;;;4.30;;
56297;SDS011;42208;6.376;-10.782;2022-08-21T01:34:44;19.17;;;4.63;;
56297;SDS011;42208;6.376;-10.782;2022-08-21T01:37:15;10.13;;;4.38;;
56297;SDS011;42208;6.376;-10.782;2022-08-21T01:39:44;11.48;;;4.57;;
56297;SDS011;42208;6.376;-10.782;2022-08-21T01:42:12;11.68;;;4.88;;
56297;SDS011;42208;6.376;-10.782;2022-08-21T01:44:41;12.40;;;4.70;;
56297;SDS011;42208;6.376;-10.782;2022-08-21T01:47:12;10.30;;;4.70;;
56297;SDS011;42208;6.376;-10.782;2022-08-21T01:49:43;8.18;;;4.45;;
56297;SDS011;42208;6.376;-10.782;2022-08-21T01:52:12;9.50;;;4.47;;
56297;SDS011;42208;6.376;-10.782;2022-08-21T01:54:40;10.30;;;5.10;;
56297;SDS011;42208;6.376;-10.782;2022-08-21T01:57:10;14.15;;;5.18;;
56297;SDS011;42208;6.376;-10.782;2022-08-21T01:59:40;7.35;;;4.47;;
56297;SDS011;42208;6.376;-10.782;2022-08-21T02:02:08;9.40;;;4.82;;
56297;SDS011;42208;6.376;-10.782;2022-08-21T02:04:37;12.15;;;5.07;;
56297;SDS011;42208;6.376;-10.782;2022-08-21T02:07:06;13.00;;;4.70;;
56297;SDS011;42208;6.376;-10.782;2022-08-21T02:09:36;13.88;;;4.63;;
56297;SDS011;42208;6.376;-10.782;2022-08-21T02:12:06;13.52;;;5.00;;
56297;SDS011;42208;6.376;-10.782;2022-08-21T02:14:34;18.45;;;5.60;;
56297;SDS011;42208;6.376;-10.782;2022-08-21T02:17:03;8.50;;;4.65;;
56297;SDS011;42208;6.376;-10.782;2022-08-21T02:22:07;12.85;;;4.68;;
56297;SDS011;42208;6.376;-10.782;2022-08-21T02:24:37;8.55;;;4.85;;
56297;SDS011;42208;6.376;-10.782;2022-08-21T02:27:23;8.73;;;4.93;;
56297;SDS011;42208;6.376;-10.782;2022-08-21T02:29:54;10.20;;;5.53;;
56297;SDS011;42208;6.376;-10.782;2022-08-21T02:32:24;8.70;;;4.90;;
56297;SDS011;42208;6.376;-10.782;2022-08-21T02:34:53;12.32;;;5.05;;
56297;SDS011;42208;6.376;-10.782;2022-08-21T02:37:22;20.15;;;5.25;;
56297;SDS011;42208;6.376;-10.782;2022-08-21T02:39:51;7.97;;;4.78;;
56297;SDS011;42208;6.376;-10.782;2022-08-21T02:42:19;8.05;;;4.75;;
56297;SDS011;42208;6.376;-10.782;2022-08-21T02:44:47;13.98;;;5.75;;
56297;SDS011;42208;6.376;-10.782;2022-08-21T02:47:16;13.95;;;6.45;;
56297;SDS011;42208;6.376;-10.782;2022-08-21T02:49:44;12.85;;;7.95;;
56297;SDS011;42208;6.376;-10.782;2022-08-21T02:52:12;21.65;;;8.57;;
56297;SDS011;42208;6.376;-10.782;2022-08-21T02:54:41;19.35;;;10.30;;
56297;SDS011;42208;6.376;-10.782;2022-08-21T02:57:09;20.80;;;9.80;;
56297;SDS011;42208;6.376;-10.782;2022-08-21T02:59:37;15.68;;;8.15;;
56297;SDS011;42208;6.376;-10.782;2022-08-21T03:02:06;17.55;;;7.90;;
56297;SDS011;42208;6.376;-10.782;2022-08-21T03:04:34;12.55;;;6.65;;
56297;SDS011;42208;6.376;-10.782;2022-08-21T03:07:02;19.98;;;8.02;;
56297;SDS011;42208;6.376;-10.782;2022-08-21T03:09:36;13.68;;;6.82;;
56297;SDS011;42208;6.376;-10.782;2022-08-21T03:12:16;19.17;;;6.78;;
56297;SDS011;42208;6.376;-10.782;2022-08-21T03:14:44;17.52;;;6.65;;
56297;SDS011;42208;6.376;-10.782;2022-08-21T03:17:13;14.32;;;5.97;;
56297;SDS011;42208;6.376;-10.782;2022-08-21T03:19:41;13.32;;;6.18;;
56297;SDS011;42208;6.376;-10.782;2022-08-21T03:22:09;13.00;;;6.97;;
56297;SDS011;42208;6.376;-10.782;2022-08-21T03:24:37;11.95;;;6.82;;
56297;SDS011;42208;6.376;-10.782;2022-08-21T03:29:40;12.60;;;7.15;;
56297;SDS011;42208;6.376;-10.782;2022-08-21T03:32:08;19.25;;;7.43;;
56297;SDS011;42208;6.376;-10.782;2022-08-21T03:34:37;19.67;;;7.45;;
56297;SDS011;42208;6.376;-10.782;2022-08-21T03:37:06;16.35;;;6.95;;
56297;SDS011;42208;6.376;-10.782;2022-08-21T03:39:35;13.00;;;7.00;;
56297;SDS011;42208;6.376;-10.782;2022-08-21T03:42:04;15.50;;;6.57;;
56297;SDS011;42208;6.376;-10.782;2022-08-21T03:44:33;13.13;;;6.25;;
56297;SDS011;42208;6.376;-10.782;2022-08-21T03:47:02;18.48;;;6.88;;
56297;SDS011;42208;6.376;-10.782;2022-08-21T03:49:31;12.65;;;6.00;;
56297;SDS011;42208;6.376;-10.782;2022-08-21T03:51:59;17.95;;;6.15;;
56297;SDS011;42208;6.376;-10.782;2022-08-21T03:54:28;11.32;;;6.20;;
56297;SDS011;42208;6.376;-10.782;2022-08-21T03:56:56;12.80;;;5.80;;
56297;SDS011;42208;6.376;-10.782;2022-08-21T03:59:25;16.80;;;5.90;;
56297;SDS011;42208;6.376;-10.782;2022-08-21T04:01:54;19.38;;;5.95;;
56297;SDS011;42208;6.376;-10.782;2022-08-21T04:04:24;15.82;;;5.53;;
56297;SDS011;42208;6.376;-10.782;2022-08-21T04:06:54;14.00;;;6.13;;
56297;SDS011;42208;6.376;-10.782;2022-08-21T04:09:24;14.70;;;5.82;;
56297;SDS011;42208;6.376;-10.782;2022-08-21T04:11:52;11.65;;;6.10;;
56297;SDS011;42208;6.376;-10.782;2022-08-21T04:14:21;14.25;;;5.63;;
56297;SDS011;42208;6.376;-10.782;2022-08-21T04:16:49;13.70;;;5.47;;
56297;SDS011;42208;6.376;-10.782;2022-08-21T04:19:18;14.93;;;5.65;;
56297;SDS011;42208;6.376;-10.782;2022-08-21T04:21:46;13.10;;;5.50;;
56297;SDS011;42208;6.376;-10.782;2022-08-21T04:26:46;11.63;;;5.10;;
56297;SDS011;42208;6.376;-10.782;2022-08-21T04:29:14;16.60;;;6.20;;
56297;SDS011;42208;6.376;-10.782;2022-08-21T04:31:42;17.85;;;6.18;;
56297;SDS011;42208;6.376;-10.782;2022-08-21T04:34:11;19.13;;;6.70;;
56297;SDS011;42208;6.376;-10.782;2022-08-21T04:36:39;15.10;;;6.07;;
56297;SDS011;42208;6.376;-10.782;2022-08-21T04:39:07;14.65;;;6.95;;
56297;SDS011;42208;6.376;-10.782;2022-08-21T04:41:36;16.30;;;6.47;;
56297;SDS011;42208;6.376;-10.782;2022-08-21T04:44:04;21.98;;;6.70;;
56297;SDS011;42208;6.376;-10.782;2022-08-21T04:46:32;17.92;;;7.15;;
56297;SDS011;42208;6.376;-10.782;2022-08-21T04:49:01;13.30;;;7.28;;
56297;SDS011;42208;6.376;-10.782;2022-08-21T04:51:33;15.00;;;6.47;;
56297;SDS011;42208;6.376;-10.782;2022-08-21T04:54:12;14.13;;;7.40;;
56297;SDS011;42208;6.376;-10.782;2022-08-21T04:57:04;16.27;;;7.27;;
56297;SDS011;42208;6.376;-10.782;2022-08-21T04:59:36;13.63;;;6.28;;
56297;SDS011;42208;6.376;-10.782;2022-08-21T05:02:10;15.55;;;6.43;;
56297;SDS011;42208;6.376;-10.782;2022-08-21T05:04:42;15.63;;;5.95;;
56297;SDS011;42208;6.376;-10.782;2022-08-21T05:07:22;15.30;;;6.78;;
56297;SDS011;42208;6.376;-10.782;2022-08-21T05:10:09;17.60;;;7.53;;
56297;SDS011;42208;6.376;-10.782;2022-08-21T05:12:40;18.70;;;6.88;;
56297;SDS011;42208;6.376;-10.782;2022-08-21T05:15:10;18.13;;;7.82;;
56297;SDS011;42208;6.376;-10.782;2022-08-21T05:17:40;18.27;;;7.57;;
56297;SDS011;42208;6.376;-10.782;2022-08-21T05:20:09;14.68;;;6.80;;
56297;SDS011;42208;6.376;-10.782;2022-08-21T05:22:38;15.48;;;7.85;;
56297;SDS011;42208;6.376;-10.782;2022-08-21T05:25:07;19.23;;;7.93;;
56297;SDS011;42208;6.376;-10.782;2022-08-21T05:27:37;15.80;;;7.57;;
56297;SDS011;42208;6.376;-10.782;2022-08-21T05:30:08;20.55;;;7.53;;
56297;SDS011;42208;6.376;-10.782;2022-08-21T05:32:37;23.25;;;8.57;;
56297;SDS011;42208;6.376;-10.782;2022-08-21T05:35:06;15.15;;;7.00;;
56297;SDS011;42208;6.376;-10.782;2022-08-21T05:37:35;11.98;;;7.22;;
56297;SDS011;42208;6.376;-10.782;2022-08-21T05:40:04;21.45;;;7.97;;
56297;SDS011;42208;6.376;-10.782;2022-08-21T05:42:49;17.02;;;7.50;;
56297;SDS011;42208;6.376;-10.782;2022-08-21T05:45:25;18.65;;;8.48;;
56297;SDS011;42208;6.376;-10.782;2022-08-21T05:48:12;24.38;;;9.05;;
56297;SDS011;42208;6.376;-10.782;2022-08-21T05:50:44;26.05;;;9.70;;
56297;SDS011;42208;6.376;-10.782;2022-08-21T05:53:14;31.23;;;9.32;;
56297;SDS011;42208;6.376;-10.782;2022-08-21T05:55:44;28.58;;;9.52;;
56297;SDS011;42208;6.376;-10.782;2022-08-21T05:58:13;25.38;;;9.45;;
56297;SDS011;42208;6.376;-10.782;2022-08-21T06:00:43;26.67;;;9.60;;
56297;SDS011;42208;6.376;-10.782;2022-08-21T06:03:14;27.08;;;8.73;;
56297;SDS011;42208;6.376;-10.782;2022-08-21T06:05:48;23.73;;;8.18;;
56297;SDS011;42208;6.376;-10.782;2022-08-21T06:08:17;22.17;;;8.50;;
56297;SDS011;42208;6.376;-10.782;2022-08-21T06:10:46;21.27;;;7.78;;
56297;SDS011;42208;6.376;-10.782;2022-08-21T06:13:16;24.00;;;7.55;;
56297;SDS011;42208;6.376;-10.782;2022-08-21T06:15:46;15.73;;;7.47;;
56297;SDS011;42208;6.376;-10.782;2022-08-21T06:18:14;17.25;;;9.13;;
56297;SDS011;42208;6.376;-10.782;2022-08-21T06:20:43;28.15;;;9.45;;
56297;SDS011;42208;6.376;-10.782;2022-08-21T06:23:11;20.10;;;9.00;;
56297;SDS011;42208;6.376;-10.782;2022-08-21T06:25:40;21.73;;;9.13;;
56297;SDS011;42208;6.376;-10.782;2022-08-21T06:28:09;28.52;;;10.32;;
56297;SDS011;42208;6.376;-10.782;2022-08-21T06:30:38;22.15;;;10.73;;
56297;SDS011;42208;6.376;-10.782;2022-08-21T06:33:07;22.90;;;12.68;;
56297;SDS011;42208;6.376;-10.782;2022-08-21T06:35:35;30.35;;;11.80;;
56297;SDS011;42208;6.376;-10.782;2022-08-21T06:38:07;32.72;;;12.57;;
56297;SDS011;42208;6.376;-10.782;2022-08-21T06:40:36;27.35;;;11.73;;
56297;SDS011;42208;6.376;-10.782;2022-08-21T06:43:14;25.13;;;12.10;;
56297;SDS011;42208;6.376;-10.782;2022-08-21T06:45:44;30.65;;;13.80;;
56297;SDS011;42208;6.376;-10.782;2022-08-21T06:48:12;25.40;;;12.30;;
56297;SDS011;42208;6.376;-10.782;2022-08-21T06:50:45;24.98;;;12.13;;
56297;SDS011;42208;6.376;-10.782;2022-08-21T06:53:16;24.30;;;11.30;;
56297;SDS011;42208;6.376;-10.782;2022-08-21T06:55:47;24.65;;;10.10;;
56297;SDS011;42208;6.376;-10.782;2022-08-21T06:58:16;22.90;;;9.65;;
56297;SDS011;42208;6.376;-10.782;2022-08-21T07:00:46;21.25;;;10.15;;
56297;SDS011;42208;6.376;-10.782;2022-08-21T07:03:17;21.52;;;8.63;;
56297;SDS011;42208;6.376;-10.782;2022-08-21T07:05:53;20.52;;;9.48;;
56297;SDS011;42208;6.376;-10.782;2022-08-21T07:08:22;26.55;;;10.20;;
56297;SDS011;42208;6.376;-10.782;2022-08-21T07:10:53;26.17;;;10.23;;
56297;SDS011;42208;6.376;-10.782;2022-08-21T07:13:23;23.55;;;10.40;;
56297;SDS011;42208;6.376;-10.782;2022-08-21T07:15:52;24.73;;;10.32;;
56297;SDS011;42208;6.376;-10.782;2022-08-21T07:18:20;19.88;;;10.30;;
56297;SDS011;42208;6.376;-10.782;2022-08-21T07:20:48;26.35;;;10.18;;
56297;SDS011;42208;6.376;-10.782;2022-08-21T07:23:29;25.27;;;11.25;;
56297;SDS011;42208;6.376;-10.782;2022-08-21T07:25:59;18.67;;;9.50;;
56297;SDS011;42208;6.376;-10.782;2022-08-21T07:28:28;25.60;;;10.85;;
56297;SDS011;42208;6.376;-10.782;2022-08-21T07:30:57;21.05;;;9.70;;
56297;SDS011;42208;6.376;-10.782;2022-08-21T07:33:28;16.35;;;7.80;;
56297;SDS011;42208;6.376;-10.782;2022-08-21T07:35:59;16.63;;;7.95;;
56297;SDS011;42208;6.376;-10.782;2022-08-21T07:38:28;20.77;;;8.68;;
56297;SDS011;42208;6.376;-10.782;2022-08-21T07:40:57;16.73;;;8.30;;
56297;SDS011;42208;6.376;-10.782;2022-08-21T07:43:29;20.63;;;7.38;;
56297;SDS011;42208;6.376;-10.782;2022-08-21T07:45:57;16.50;;;7.38;;
56297;SDS011;42208;6.376;-10.782;2022-08-21T07:48:25;19.30;;;7.15;;
56297;SDS011;42208;6.376;-10.782;2022-08-21T07:51:05;17.38;;;7.32;;
56297;SDS011;42208;6.376;-10.782;2022-08-21T07:53:36;24.10;;;7.47;;
56297;SDS011;42208;6.376;-10.782;2022-08-21T07:56:05;17.52;;;7.97;;
56297;SDS011;42208;6.376;-10.782;2022-08-21T07:58:35;16.60;;;7.45;;
56297;SDS011;42208;6.376;-10.782;2022-08-21T08:01:04;13.23;;;6.97;;
56297;SDS011;42208;6.376;-10.782;2022-08-21T08:03:33;14.35;;;6.68;;
56297;SDS011;42208;6.376;-10.782;2022-08-21T08:06:02;12.85;;;6.75;;
56297;SDS011;42208;6.376;-10.782;2022-08-21T08:08:31;14.32;;;6.07;;
56297;SDS011;42208;6.376;-10.782;2022-08-21T08:10:59;13.55;;;7.40;;
56297;SDS011;42208;6.376;-10.782;2022-08-21T08:13:28;10.15;;;6.30;;
56297;SDS011;42208;6.376;-10.782;2022-08-21T08:15:56;10.32;;;6.63;;
56297;SDS011;42208;6.376;-10.782;2022-08-21T08:18:25;10.68;;;6.43;;
56297;SDS011;42208;6.376;-10.782;2022-08-21T08:20:53;21.80;;;6.82;;
56297;SDS011;42208;6.376;-10.782;2022-08-21T08:23:21;10.23;;;5.70;;
56297;SDS011;42208;6.376;-10.782;2022-08-21T08:25:50;18.58;;;7.00;;
56297;SDS011;42208;6.376;-10.782;2022-08-21T08:28:18;13.55;;;6.32;;
56297;SDS011;42208;6.376;-10.782;2022-08-21T08:30:46;12.77;;;5.78;;
56297;SDS011;42208;6.376;-10.782;2022-08-21T08:33:15;14.23;;;6.00;;
56297;SDS011;42208;6.376;-10.782;2022-08-21T08:35:44;10.18;;;6.28;;
56297;SDS011;42208;6.376;-10.782;2022-08-21T08:38:16;10.68;;;5.50;;
56297;SDS011;42208;6.376;-10.782;2022-08-21T08:43:39;14.48;;;6.15;;
56297;SDS011;42208;6.376;-10.782;2022-08-21T08:46:16;9.73;;;5.07;;
56297;SDS011;42208;6.376;-10.782;2022-08-21T08:54:35;14.23;;;6.38;;
56297;SDS011;42208;6.376;-10.782;2022-08-21T08:57:16;15.93;;;6.50;;
56297;SDS011;42208;6.376;-10.782;2022-08-21T08:59:51;16.25;;;7.20;;
56297;SDS011;42208;6.376;-10.782;2022-08-21T09:02:22;12.98;;;6.22;;
56297;SDS011;42208;6.376;-10.782;2022-08-21T09:04:53;12.60;;;6.70;;
56297;SDS011;42208;6.376;-10.782;2022-08-21T09:12:45;18.73;;;7.60;;
56297;SDS011;42208;6.376;-10.782;2022-08-21T09:24:47;20.50;;;7.60;;
56297;SDS011;42208;6.376;-10.782;2022-08-21T09:27:11;18.48;;;6.95;;
56297;SDS011;42208;6.376;-10.782;2022-08-21T09:29:43;17.10;;;7.22;;
56297;SDS011;42208;6.376;-10.782;2022-08-21T09:34:59;13.55;;;7.70;;
56297;SDS011;42208;6.376;-10.782;2022-08-21T09:37:32;15.95;;;7.70;;
56297;SDS011;42208;6.376;-10.782;2022-08-21T09:40:03;15.00;;;7.43;;
56297;SDS011;42208;6.376;-10.782;2022-08-21T09:43:00;23.73;;;7.30;;
56297;SDS011;42208;6.376;-10.782;2022-08-21T09:45:48;16.50;;;7.47;;
56297;SDS011;42208;6.376;-10.782;2022-08-21T09:48:29;13.70;;;7.25;;
56297;SDS011;42208;6.376;-10.782;2022-08-21T09:51:13;15.10;;;7.55;;
56297;SDS011;42208;6.376;-10.782;2022-08-21T09:53:46;10.73;;;6.40;;
56297;SDS011;42208;6.376;-10.782;2022-08-21T09:57:05;15.23;;;7.22;;
56297;SDS011;42208;6.376;-10.782;2022-08-21T09:59:38;16.90;;;7.25;;
56297;SDS011;42208;6.376;-10.782;2022-08-21T10:02:29;14.85;;;7.00;;
56297;SDS011;42208;6.376;-10.782;2022-08-21T10:05:09;12.20;;;7.68;;
56297;SDS011;42208;6.376;-10.782;2022-08-21T10:07:51;20.75;;;8.60;;
56297;SDS011;42208;6.376;-10.782;2022-08-21T10:10:22;16.17;;;7.88;;
56297;SDS011;42208;6.376;-10.782;2022-08-21T10:16:03;17.70;;;8.60;;
56297;SDS011;42208;6.376;-10.782;2022-08-21T10:18:41;16.58;;;7.90;;
56297;SDS011;42208;6.376;-10.782;2022-08-21T10:21:47;17.20;;;8.57;;
56297;SDS011;42208;6.376;-10.782;2022-08-21T10:35:56;17.65;;;9.20;;
56297;SDS011;42208;6.376;-10.782;2022-08-21T10:42:03;18.85;;;9.05;;
56297;SDS011;42208;6.376;-10.782;2022-08-21T10:47:28;18.27;;;9.68;;
56297;SDS011;42208;6.376;-10.782;2022-08-21T10:50:15;18.50;;;8.32;;
56297;SDS011;42208;6.376;-10.782;2022-08-21T10:55:25;15.90;;;8.52;;
56297;SDS011;42208;6.376;-10.782;2022-08-21T11:00:43;11.35;;;7.82;;
56297;SDS011;42208;6.376;-10.782;2022-08-21T11:03:18;19.15;;;8.07;;
56297;SDS011;42208;6.376;-10.782;2022-08-21T11:06:09;19.45;;;8.32;;
56297;SDS011;42208;6.376;-10.782;2022-08-21T11:08:46;17.52;;;7.82;;
56297;SDS011;42208;6.376;-10.782;2022-08-21T11:11:24;14.05;;;7.38;;
56297;SDS011;42208;6.376;-10.782;2022-08-21T11:14:48;14.70;;;8.18;;
56297;SDS011;42208;6.376;-10.782;2022-08-21T11:17:09;16.30;;;7.72;;
56297;SDS011;42208;6.376;-10.782;2022-08-21T11:22:58;17.15;;;7.82;;
56297;SDS011;42208;6.376;-10.782;2022-08-21T11:25:35;13.63;;;7.57;;
56297;SDS011;42208;6.376;-10.782;2022-08-21T11:28:13;11.13;;;7.50;;
56297;SDS011;42208;6.376;-10.782;2022-08-21T11:30:49;10.50;;;7.28;;
56297;SDS011;42208;6.376;-10.782;2022-08-21T11:36:15;35.13;;;17.23;;
56297;SDS011;42208;6.376;-10.782;2022-08-21T11:39:06;14.27;;;7.00;;
56297;SDS011;42208;6.376;-10.782;2022-08-21T11:41:58;19.85;;;8.93;;
56297;SDS011;42208;6.376;-10.782;2022-08-21T11:45:21;20.73;;;8.23;;
56297;SDS011;42208;6.376;-10.782;2022-08-21T11:50:49;16.33;;;7.57;;
56297;SDS011;42208;6.376;-10.782;2022-08-21T11:53:29;15.63;;;6.47;;
56297;SDS011;42208;6.376;-10.782;2022-08-21T11:56:41;10.25;;;6.57;;
56297;SDS011;42208;6.376;-10.782;2022-08-21T11:59:14;15.63;;;8.47;;
56297;SDS011;42208;6.376;-10.782;2022-08-21T12:02:16;15.68;;;7.15;;
56297;SDS011;42208;6.376;-10.782;2022-08-21T12:04:56;13.95;;;6.55;;
56297;SDS011;42208;6.376;-10.782;2022-08-21T12:07:42;20.60;;;8.00;;
56297;SDS011;42208;6.376;-10.782;2022-08-21T12:10:13;25.35;;;8.93;;
56297;SDS011;42208;6.376;-10.782;2022-08-21T12:12:44;15.30;;;7.70;;
56297;SDS011;42208;6.376;-10.782;2022-08-21T12:23:06;19.27;;;8.27;;
56297;SDS011;42208;6.376;-10.782;2022-08-21T12:25:47;15.40;;;7.10;;
56297;SDS011;42208;6.376;-10.782;2022-08-21T12:28:27;14.73;;;6.60;;
56297;SDS011;42208;6.376;-10.782;2022-08-21T12:30:57;15.43;;;7.57;;
56297;SDS011;42208;6.376;-10.782;2022-08-21T12:33:32;10.93;;;7.22;;
56297;SDS011;42208;6.376;-10.782;2022-08-21T12:36:10;27.60;;;9.40;;
56297;SDS011;42208;6.376;-10.782;2022-08-21T12:38:54;20.75;;;7.32;;
56297;SDS011;42208;6.376;-10.782;2022-08-21T12:41:32;12.02;;;6.35;;
56297;SDS011;42208;6.376;-10.782;2022-08-21T12:44:07;22.08;;;8.55;;
56297;SDS011;42208;6.376;-10.782;2022-08-21T12:46:58;13.70;;;6.60;;
56297;SDS011;42208;6.376;-10.782;2022-08-21T12:49:43;12.13;;;6.45;;
56297;SDS011;42208;6.376;-10.782;2022-08-21T12:52:30;12.07;;;6.90;;
56297;SDS011;42208;6.376;-10.782;2022-08-21T12:55:06;19.13;;;7.38;;
56297;SDS011;42208;6.376;-10.782;2022-08-21T12:57:39;21.83;;;7.80;;
56297;SDS011;42208;6.376;-10.782;2022-08-21T13:00:10;15.80;;;7.93;;
56297;SDS011;42208;6.376;-10.782;2022-08-21T13:02:43;11.48;;;6.80;;
56297;SDS011;42208;6.376;-10.782;2022-08-21T13:05:16;10.05;;;6.55;;
56297;SDS011;42208;6.376;-10.782;2022-08-21T13:08:06;16.63;;;8.45;;
56297;SDS011;42208;6.376;-10.782;2022-08-21T13:10:38;19.92;;;7.68;;
56297;SDS011;42208;6.376;-10.782;2022-08-21T13:13:26;14.68;;;8.73;;
56297;SDS011;42208;6.376;-10.782;2022-08-21T13:16:00;16.60;;;7.18;;
56297;SDS011;42208;6.376;-10.782;2022-08-21T13:18:33;12.88;;;7.25;;
56297;SDS011;42208;6.376;-10.782;2022-08-21T13:21:26;19.60;;;7.45;;
56297;SDS011;42208;6.376;-10.782;2022-08-21T13:24:12;11.70;;;6.88;;
56297;SDS011;42208;6.376;-10.782;2022-08-21T13:27:14;15.55;;;8.55;;
56297;SDS011;42208;6.376;-10.782;2022-08-21T13:30:08;13.98;;;8.63;;
56297;SDS011;42208;6.376;-10.782;2022-08-21T13:32:41;27.02;;;13.57;;
56297;SDS011;42208;6.376;-10.782;2022-08-21T13:35:14;12.05;;;7.22;;
56297;SDS011;42208;6.376;-10.782;2022-08-21T13:37:43;19.38;;;9.55;;
56297;SDS011;42208;6.376;-10.782;2022-08-21T13:40:14;24.45;;;10.60;;
56297;SDS011;42208;6.376;-10.782;2022-08-21T13:42:47;11.50;;;6.65;;
56297;SDS011;42208;6.376;-10.782;2022-08-21T13:45:23;18.35;;;9.20;;
56297;SDS011;42208;6.376;-10.782;2022-08-21T13:47:54;29.20;;;11.75;;
56297;SDS011;42208;6.376;-10.782;2022-08-21T13:50:24;24.83;;;11.02;;
56297;SDS011;42208;6.376;-10.782;2022-08-21T13:53:00;11.80;;;7.45;;
56297;SDS011;42208;6.376;-10.782;2022-08-21T13:55:36;18.92;;;8.63;;
56297;SDS011;42208;6.376;-10.782;2022-08-21T13:58:10;13.45;;;7.20;;
56297;SDS011;42208;6.376;-10.782;2022-08-21T14:00:46;19.83;;;8.68;;
56297;SDS011;42208;6.376;-10.782;2022-08-21T14:06:20;15.18;;;7.60;;
56297;SDS011;42208;6.376;-10.782;2022-08-21T14:08:58;13.43;;;7.00;;
56297;SDS011;42208;6.376;-10.782;2022-08-21T14:11:32;16.75;;;7.85;;
56297;SDS011;42208;6.376;-10.782;2022-08-21T14:14:03;12.68;;;6.72;;
56297;SDS011;42208;6.376;-10.782;2022-08-21T14:16:52;16.38;;;7.45;;
56297;SDS011;42208;6.376;-10.782;2022-08-21T14:22:26;17.38;;;7.10;;
56297;SDS011;42208;6.376;-10.782;2022-08-21T14:25:08;18.13;;;8.18;;
56297;SDS011;42208;6.376;-10.782;2022-08-21T14:27:39;21.70;;;12.38;;
56297;SDS011;42208;6.376;-10.782;2022-08-21T14:30:21;18.75;;;6.75;;
56297;SDS011;42208;6.376;-10.782;2022-08-21T14:32:56;12.05;;;6.70;;
56297;SDS011;42208;6.376;-10.782;2022-08-21T14:35:25;16.50;;;6.90;;
56297;SDS011;42208;6.376;-10.782;2022-08-21T14:37:53;15.32;;;7.78;;
56297;SDS011;42208;6.376;-10.782;2022-08-21T14:40:23;14.82;;;6.70;;
56297;SDS011;42208;6.376;-10.782;2022-08-21T14:42:52;20.60;;;7.70;;
56297;SDS011;42208;6.376;-10.782;2022-08-21T14:45:28;20.17;;;7.75;;
56297;SDS011;42208;6.376;-10.782;2022-08-21T14:47:57;16.20;;;7.25;;
56297;SDS011;42208;6.376;-10.782;2022-08-21T14:50:26;19.70;;;8.15;;
56297;SDS011;42208;6.376;-10.782;2022-08-21T14:52:54;11.93;;;7.00;;
56297;SDS011;42208;6.376;-10.782;2022-08-21T14:55:23;16.40;;;7.20;;
56297;SDS011;42208;6.376;-10.782;2022-08-21T14:57:53;12.07;;;6.95;;
56297;SDS011;42208;6.376;-10.782;2022-08-21T15:00:24;16.45;;;7.63;;
56297;SDS011;42208;6.376;-10.782;2022-08-21T15:03:02;10.88;;;6.63;;
56297;SDS011;42208;6.376;-10.782;2022-08-21T15:08:24;12.38;;;7.05;;
56297;SDS011;42208;6.376;-10.782;2022-08-21T15:10:52;13.38;;;6.90;;
56297;SDS011;42208;6.376;-10.782;2022-08-21T15:13:38;18.42;;;7.07;;
56297;SDS011;42208;6.376;-10.782;2022-08-21T15:16:08;16.33;;;6.38;;
56297;SDS011;42208;6.376;-10.782;2022-08-21T15:18:36;15.35;;;6.50;;
56297;SDS011;42208;6.376;-10.782;2022-08-21T15:21:05;14.95;;;7.25;;
56297;SDS011;42208;6.376;-10.782;2022-08-21T15:23:34;9.98;;;6.03;;
56297;SDS011;42208;6.376;-10.782;2022-08-21T15:26:06;12.55;;;6.18;;
56297;SDS011;42208;6.376;-10.782;2022-08-21T15:28:35;23.60;;;7.28;;
56297;SDS011;42208;6.376;-10.782;2022-08-21T15:31:04;19.15;;;7.75;;
56297;SDS011;42208;6.376;-10.782;2022-08-21T15:33:32;21.05;;;7.13;;
56297;SDS011;42208;6.376;-10.782;2022-08-21T15:36:01;13.02;;;5.97;;
56297;SDS011;42208;6.376;-10.782;2022-08-21T15:38:29;20.67;;;6.45;;
56297;SDS011;42208;6.376;-10.782;2022-08-21T15:40:58;17.63;;;6.35;;
56297;SDS011;42208;6.376;-10.782;2022-08-21T15:43:30;10.52;;;6.18;;
56297;SDS011;42208;6.376;-10.782;2022-08-21T15:46:08;20.10;;;7.20;;
56297;SDS011;42208;6.376;-10.782;2022-08-21T15:48:39;16.95;;;7.53;;
56297;SDS011;42208;6.376;-10.782;2022-08-21T15:51:09;15.23;;;6.88;;
56297;SDS011;42208;6.376;-10.782;2022-08-21T15:53:38;28.27;;;7.22;;
56297;SDS011;42208;6.376;-10.782;2022-08-21T15:56:09;14.32;;;6.85;;
56297;SDS011;42208;6.376;-10.782;2022-08-21T15:59:03;15.02;;;7.50;;
56297;SDS011;42208;6.376;-10.782;2022-08-21T16:01:39;19.05;;;7.75;;
56297;SDS011;42208;6.376;-10.782;2022-08-21T16:04:12;17.10;;;7.53;;
56297;SDS011;42208;6.376;-10.782;2022-08-21T16:06:47;22.60;;;8.02;;
56297;SDS011;42208;6.376;-10.782;2022-08-21T16:09:21;19.05;;;8.93;;
56297;SDS011;42208;6.376;-10.782;2022-08-21T16:11:50;16.85;;;8.25;;
56297;SDS011;42208;6.376;-10.782;2022-08-21T16:14:19;20.42;;;8.13;;
56297;SDS011;42208;6.376;-10.782;2022-08-21T16:16:47;16.67;;;7.65;;
56297;SDS011;42208;6.376;-10.782;2022-08-21T16:19:15;20.42;;;8.20;;
56297;SDS011;42208;6.376;-10.782;2022-08-21T16:21:44;13.43;;;7.82;;
56297;SDS011;42208;6.376;-10.782;2022-08-21T16:24:12;14.13;;;7.88;;